Time;durP1;ratioP1;P1;durP2;ratioP2;P2;SDS_P1;SDS_P2;PMS_P1;PMS_P2;Temp;Humidity;BMP_temperature;BMP_pressure;BME280_temperature;BME280_humidity;BME280_pressure;Samples;Min_cycle;Max_cycle;Signal;HPM_P1;HPM_P2
2021/06/21 00:02:01;;;;;;;8.20;1.87;;;;;;;18.96;76.31;99142.72;1680496;84;21592;-70
2021/06/21 00:04:27;;;;;;;7.33;1.90;;;;;;;18.97;76.28;99140.16;1659958;84;21045;-70
2021/06/21 00:06:56;;;;;;;4.65;2.22;;;;;;;18.96;76.38;99144.11;1676121;84;21067;-70
2021/06/21 00:09:22;;;;;;;4.67;2.30;;;;;;;18.95;76.40;99148.08;1683086;84;21028;-69
2021/06/21 00:11:50;;;;;;;4.08;1.92;;;;;;;18.95;76.28;99150.06;1671897;84;21045;-69
2021/06/21 00:14:16;;;;;;;3.25;1.98;;;;;;;18.94;76.44;99145.09;1655780;84;21023;-69
2021/06/21 00:16:44;;;;;;;2.75;1.98;;;;;;;18.94;76.58;99145.09;1657661;84;21060;-69
2021/06/21 00:19:11;;;;;;;6.45;2.33;;;;;;;18.93;76.43;99139.31;1641615;86;21043;-69
2021/06/21 00:21:39;;;;;;;3.67;2.25;;;;;;;18.91;76.59;99138.89;1638580;86;20963;-69
2021/06/21 00:24:07;;;;;;;4.15;2.30;;;;;;;18.91;76.67;99139.48;1633033;87;21207;-68
2021/06/21 00:26:35;;;;;;;10.75;1.92;;;;;;;18.89;76.80;99138.47;1636789;87;21100;-69
2021/06/21 00:29:02;;;;;;;2.75;1.80;;;;;;;18.88;76.81;99140.25;1639900;87;21613;-69
2021/06/21 00:31:29;;;;;;;12.58;2.25;;;;;;;18.86;77.01;99141.22;1628659;86;21228;-69
2021/06/21 00:33:55;;;;;;;8.25;1.92;;;;;;;18.84;77.13;99139.41;1614252;87;21106;-69
2021/06/21 00:36:22;;;;;;;5.65;2.15;;;;;;;18.80;77.50;99139.37;1633345;87;21165;-69
2021/06/21 00:38:48;;;;;;;3.35;1.60;;;;;;;18.76;78.11;99142.70;1627017;87;20998;-69
2021/06/21 00:41:15;;;;;;;6.80;1.98;;;;;;;18.69;78.24;99140.63;1626229;87;22556;-68
2021/06/21 00:43:41;;;;;;;6.72;2.12;;;;;;;18.62;78.54;99133.59;1622263;87;21079;-69
2021/06/21 00:46:08;;;;;;;3.58;1.95;;;;;;;18.56;78.84;99137.86;1578572;90;21109;-68
2021/06/21 00:48:35;;;;;;;5.37;1.92;;;;;;;18.49;79.03;99130.83;1614063;86;21215;-69
2021/06/21 00:51:01;;;;;;;6.15;2.37;;;;;;;18.42;79.43;99130.18;1635981;86;20959;-68
2021/06/21 00:53:27;;;;;;;4.97;1.82;;;;;;;18.39;79.64;99131.52;1631611;87;21553;-68
2021/06/21 00:55:54;;;;;;;4.00;2.08;;;;;;;18.39;79.64;99123.98;1559665;90;21056;-68
2021/06/21 00:58:20;;;;;;;3.15;1.92;;;;;;;18.36;79.77;99123.35;1619173;87;21085;-69
2021/06/21 01:00:47;;;;;;;4.03;2.10;;;;;;;18.35;79.89;99123.14;1621445;87;21542;-69
2021/06/21 01:03:14;;;;;;;6.65;2.60;;;;;;;18.34;79.99;99129.88;1611856;88;21582;-69
2021/06/21 01:05:40;;;;;;;6.45;2.17;;;;;;;18.34;80.10;99122.92;1611606;87;21130;-69
2021/06/21 01:08:07;;;;;;;8.03;2.10;;;;;;;18.34;79.95;99123.52;1637578;87;21581;-69
2021/06/21 01:10:41;;;;;;;6.17;2.30;;;;;;;18.34;79.95;99122.13;1633431;87;21010;-70
2021/06/21 01:13:29;;;;;;;4.12;1.75;;;;;;;18.32;80.13;99116.95;1588970;87;21169;-69
2021/06/21 01:16:19;;;;;;;5.00;1.92;;;;;;;18.29;80.18;99113.53;1580052;90;21628;-71
2021/06/21 01:19:13;;;;;;;5.67;1.57;;;;;;;18.28;80.36;99117.49;1624521;86;21046;-70
2021/06/21 01:22:16;;;;;;;4.28;1.75;;;;;;;18.27;80.23;99102.00;1634000;86;21525;-70
2021/06/21 01:25:09;;;;;;;6.95;1.92;;;;;;;18.27;80.18;99104.78;1614981;87;21091;-70
2021/06/21 01:27:55;;;;;;;6.92;2.27;;;;;;;18.27;80.28;99105.37;1580841;90;21157;-71
2021/06/21 01:30:28;;;;;;;4.00;1.70;;;;;;;18.24;80.20;99106.92;1578140;90;21066;-70
2021/06/21 01:32:59;;;;;;;4.12;1.70;;;;;;;18.25;80.25;99109.91;1586708;88;21821;-69
2021/06/21 01:35:35;;;;;;;7.03;1.90;;;;;;;18.24;80.31;99107.51;1608408;88;21747;-70
2021/06/21 01:38:13;;;;;;;3.87;1.47;;;;;;;18.22;80.34;99100.94;1591719;88;21070;-69
2021/06/21 01:40:43;;;;;;;2.83;1.37;;;;;;;18.19;80.46;99097.53;1579677;90;22018;-69
2021/06/21 01:43:12;;;;;;;8.78;2.42;;;;;;;18.18;80.46;99100.09;1612853;86;21513;-70
2021/06/21 01:45:38;;;;;;;6.30;2.00;;;;;;;18.19;80.43;99098.12;1626829;86;20975;-70
2021/06/21 01:48:05;;;;;;;5.00;1.67;;;;;;;18.20;80.41;99095.55;1617817;87;21192;-70
2021/06/21 01:50:31;;;;;;;6.17;1.90;;;;;;;18.20;80.41;99096.94;1617250;87;21593;-70
2021/06/21 01:53:15;;;;;;;8.88;1.80;;;;;;;18.20;80.47;99107.46;1632473;87;21141;-69
2021/06/21 01:55:46;;;;;;;3.00;2.12;;;;;;;18.22;80.42;99105.70;1618391;87;21220;-69
2021/06/21 01:58:12;;;;;;;3.05;1.70;;;;;;;18.22;80.41;99102.33;1625202;87;21585;-70
2021/06/21 02:00:40;;;;;;;4.58;1.60;;;;;;;18.23;80.43;99108.69;1623695;87;21023;-71
2021/06/21 02:03:07;;;;;;;5.58;1.92;;;;;;;18.22;80.41;99107.89;1584591;88;21126;-71
2021/06/21 02:05:34;;;;;;;5.47;1.90;;;;;;;18.22;80.37;99107.89;1614566;87;21135;-70
2021/06/21 02:08:00;;;;;;;5.92;1.60;;;;;;;18.23;80.41;99107.30;1613257;86;21111;-70
2021/06/21 02:10:29;;;;;;;3.77;1.77;;;;;;;18.22;80.59;99114.83;1616961;87;21576;-70
2021/06/21 02:12:55;;;;;;;5.00;2.08;;;;;;;18.22;80.56;99118.20;1645898;87;21524;-70
2021/06/21 02:15:22;;;;;;;4.03;2.22;;;;;;;18.22;80.61;99121.77;1641106;87;21158;-70
2021/06/21 02:17:49;;;;;;;7.42;2.00;;;;;;;18.21;80.74;99117.39;1629091;86;21115;-71
2021/06/21 02:20:16;;;;;;;10.23;1.92;;;;;;;18.21;80.81;99113.82;1628502;85;21123;-69
2021/06/21 02:22:42;;;;;;;7.95;2.00;;;;;;;18.21;80.92;99116.59;1661947;85;20953;-70
2021/06/21 02:25:11;;;;;;;3.80;1.77;;;;;;;18.20;81.12;99118.58;1669376;84;21048;-71
2021/06/21 02:27:38;;;;;;;7.20;2.20;;;;;;;18.20;81.11;99125.52;1634728;84;21634;-70
2021/06/21 02:30:08;;;;;;;6.22;2.00;;;;;;;18.21;81.15;99121.56;1665483;84;21514;-70
2021/06/21 02:32:34;;;;;;;7.25;2.20;;;;;;;18.20;81.22;99119.16;1674618;84;21000;-70
2021/06/21 02:35:01;;;;;;;2.22;1.55;;;;;;;18.21;81.30;99116.59;1658212;84;21071;-69
2021/06/21 02:37:27;;;;;;;3.12;1.82;;;;;;;18.22;81.38;99127.34;1655386;84;21050;-70
2021/06/21 02:39:54;;;;;;;4.62;1.60;;;;;;;18.23;81.43;99127.55;1645205;84;21720;-71
2021/06/21 02:42:20;;;;;;;7.17;1.55;;;;;;;18.23;81.45;99123.38;1634705;86;21268;-70
2021/06/21 02:44:46;;;;;;;5.67;1.80;;;;;;;18.27;81.62;99126.20;1652521;84;21122;-69
2021/06/21 02:47:14;;;;;;;4.22;1.80;;;;;;;18.29;81.59;99124.65;1666939;84;21009;-70
2021/06/21 02:49:41;;;;;;;1.98;1.65;;;;;;;18.31;81.71;99125.08;1679091;84;21495;-69
2021/06/21 02:52:47;;;;;;;3.95;1.87;;;;;;;18.33;81.68;99121.91;1672622;84;21065;-70
2021/06/21 02:55:26;;;;;;;4.67;1.70;;;;;;;18.36;81.56;99127.52;1675975;84;21187;-69
2021/06/21 02:58:04;;;;;;;4.53;1.42;;;;;;;18.40;81.49;99125.59;1664387;84;21078;-70
2021/06/21 03:00:30;;;;;;;8.88;2.15;;;;;;;18.45;81.36;99127.23;1675335;84;21053;-70
2021/06/21 03:02:57;;;;;;;7.72;1.72;;;;;;;18.52;81.31;99124.52;1655497;85;21447;-71
2021/06/21 03:05:25;;;;;;;11.43;1.60;;;;;;;18.57;81.39;99121.39;1664169;84;21100;-70
2021/06/21 03:07:51;;;;;;;6.60;1.85;;;;;;;18.62;81.06;99123.87;1669219;84;21140;-71
2021/06/21 03:10:19;;;;;;;8.08;2.27;;;;;;;18.68;80.83;99120.16;1675447;84;21631;-72
2021/06/21 03:12:46;;;;;;;5.78;2.02;;;;;;;18.75;80.61;99131.37;1659774;84;21102;-71
2021/06/21 03:15:20;;;;;;;6.30;1.57;;;;;;;18.80;80.38;99126.27;1652849;86;21003;-71
2021/06/21 03:17:49;;;;;;;6.20;2.62;;;;;;;18.89;80.17;99121.78;1586124;88;21055;-71
2021/06/21 03:20:19;;;;;;;3.95;1.85;;;;;;;18.98;79.86;99125.66;1603294;87;22072;-71
2021/06/21 03:22:47;;;;;;;2.98;1.60;;;;;;;19.09;79.47;99125.94;1581708;89;21638;-71
2021/06/21 03:25:14;;;;;;;13.78;2.33;;;;;;;19.17;79.28;99122.64;1579228;89;21130;-72
2021/06/21 03:27:40;;;;;;;2.67;1.60;;;;;;;19.25;78.91;99122.11;1617466;87;21049;-72
2021/06/21 03:30:13;;;;;;;7.87;1.80;;;;;;;19.31;78.57;99124.16;1649038;85;21160;-71
2021/06/21 03:32:42;;;;;;;4.22;1.72;;;;;;;19.39;78.42;99123.63;1641529;84;21189;-71
2021/06/21 03:35:11;;;;;;;11.25;2.10;;;;;;;19.48;78.03;99116.34;1636253;86;21045;-72
2021/06/21 03:37:37;;;;;;;3.85;1.50;;;;;;;19.53;78.09;99115.43;1644635;84;21029;-71
2021/06/21 03:40:07;;;;;;;6.42;1.80;;;;;;;19.57;78.09;99114.86;1661981;84;21038;-70
2021/06/21 03:42:35;;;;;;;2.42;1.75;;;;;;;19.64;78.05;99114.89;1620838;87;21107;-71
2021/06/21 03:45:03;;;;;;;4.70;1.90;;;;;;;19.70;78.10;99119.50;1656444;84;21223;-69
2021/06/21 03:47:29;;;;;;;4.28;1.30;;;;;;;19.74;77.60;99126.70;1658518;85;21573;-69
2021/06/21 03:49:55;;;;;;;4.50;1.50;;;;;;;19.78;77.62;99119.17;1616280;87;20971;-69
2021/06/21 03:52:22;;;;;;;5.45;1.85;;;;;;;19.84;77.33;99120.20;1617025;86;21102;-72
2021/06/21 03:55:05;;;;;;;3.17;1.62;;;;;;;19.89;76.84;99121.23;1571058;89;21622;-72
2021/06/21 03:57:19;;;;;;;8.83;2.10;;;;;;;19.95;76.35;99123.86;1566415;90;21249;-69
2021/06/21 03:59:45;;;;;;;5.30;1.57;;;;;;;20.01;76.04;99118.13;1634346;86;21573;-69
2021/06/21 04:02:12;;;;;;;4.58;2.00;;;;;;;20.08;76.27;99116.77;1612640;87;21040;-73
2021/06/21 04:04:38;;;;;;;3.40;1.80;;;;;;;20.14;75.73;99111.03;1612854;87;21031;-70
2021/06/21 04:07:07;;;;;;;7.40;2.30;;;;;;;20.23;75.32;99116.22;1623428;87;22098;-69
2021/06/21 04:09:34;;;;;;;8.60;2.37;;;;;;;20.29;75.76;99113.27;1647500;85;21099;-69
2021/06/21 04:12:00;;;;;;;11.65;2.02;;;;;;;20.36;75.41;99116.09;1640833;84;20958;-69
2021/06/21 04:14:28;;;;;;;12.03;2.08;;;;;;;20.43;75.11;99116.16;1673184;84;21047;-70
2021/06/21 04:16:55;;;;;;;9.43;1.60;;;;;;;20.47;74.85;99113.38;1668398;84;21438;-70
2021/06/21 04:19:21;;;;;;;6.83;1.75;;;;;;;20.51;74.82;99104.44;1677984;84;21092;-70
2021/06/21 04:21:47;;;;;;;3.42;1.60;;;;;;;20.56;74.37;99112.42;1697580;84;21125;-70
2021/06/21 04:24:14;;;;;;;6.70;1.70;;;;;;;20.61;74.08;99119.02;1674592;84;21118;-68
2021/06/21 04:26:41;;;;;;;4.05;1.92;;;;;;;20.67;73.79;99116.05;1672589;84;21004;-69
2021/06/21 04:29:07;;;;;;;4.25;1.37;;;;;;;20.73;74.11;99114.47;1692525;83;21041;-69
2021/06/21 04:31:35;;;;;;;4.03;2.00;;;;;;;20.80;73.94;99113.70;1683973;84;21055;-69
2021/06/21 04:34:01;;;;;;;8.55;1.30;;;;;;;20.90;73.41;99121.27;1633202;85;21116;-68
2021/06/21 04:36:28;;;;;;;3.55;1.37;;;;;;;20.96;73.38;99111.31;1671260;84;21089;-69
2021/06/21 04:38:54;;;;;;;5.83;1.80;;;;;;;21.03;73.07;99111.33;1676346;84;20965;-68
2021/06/21 04:41:21;;;;;;;3.22;1.65;;;;;;;21.09;72.65;99109.15;1680690;83;20997;-71
2021/06/21 04:43:47;;;;;;;3.05;1.67;;;;;;;21.16;72.51;99109.75;1677578;84;20938;-74
2021/06/21 04:46:15;;;;;;;4.80;1.70;;;;;;;21.25;72.28;99113.58;1659047;85;21556;-71
2021/06/21 04:48:43;;;;;;;4.85;1.60;;;;;;;21.33;71.84;99111.00;1671904;84;21016;-68
2021/06/21 04:51:09;;;;;;;5.58;1.70;;;;;;;21.38;71.19;99107.18;1663582;84;21575;-67
2021/06/21 04:53:36;;;;;;;5.28;1.70;;;;;;;21.45;71.22;99102.80;1683895;84;21008;-70
2021/06/21 04:56:03;;;;;;;3.42;1.75;;;;;;;21.53;71.64;99106.58;1677091;84;20959;-67
2021/06/21 04:58:34;;;;;;;5.97;1.92;;;;;;;21.61;71.42;99108.77;1663552;84;21793;-68
2021/06/21 05:00:58;;;;;;;3.90;1.50;;;;;;;21.71;71.09;99103.78;1671243;84;21597;-68
2021/06/21 05:03:25;;;;;;;3.40;1.47;;;;;;;21.79;70.54;99107.36;1662106;84;20896;-69
2021/06/21 05:05:52;;;;;;;6.42;1.42;;;;;;;21.85;70.29;99103.77;1672486;84;21026;-67
2021/06/21 05:08:18;;;;;;;1.90;1.57;;;;;;;21.90;70.08;99101.95;1656452;85;21101;-67
2021/06/21 05:10:44;;;;;;;2.35;1.45;;;;;;;21.98;69.77;99104.11;1663348;84;21116;-67
2021/06/21 05:13:11;;;;;;;6.97;1.90;;;;;;;22.06;69.61;99105.72;1665104;84;21052;-67
2021/06/21 05:15:37;;;;;;;5.83;1.82;;;;;;;22.15;69.35;99111.68;1686617;84;21132;-67
2021/06/21 05:18:04;;;;;;;5.22;1.62;;;;;;;22.24;68.73;99105.66;1661614;84;21070;-70
2021/06/21 05:20:31;;;;;;;4.90;1.52;;;;;;;22.30;68.35;99110.44;1668334;84;21512;-68
2021/06/21 05:22:57;;;;;;;11.78;1.92;;;;;;;22.36;66.97;99109.42;1659581;84;21144;-69
2021/06/21 05:25:24;;;;;;;4.47;1.72;;;;;;;22.39;66.34;99110.80;1683588;84;20885;-73
2021/06/21 05:27:50;;;;;;;2.72;1.45;;;;;;;22.46;67.40;99112.78;1688386;84;21546;-68
2021/06/21 05:30:18;;;;;;;5.78;1.50;;;;;;;22.54;67.25;99109.31;1660987;84;20951;-71
2021/06/21 05:32:45;;;;;;;3.20;1.40;;;;;;;22.58;66.75;99109.50;1670360;84;21032;-72
2021/06/21 05:35:12;;;;;;;2.80;1.32;;;;;;;22.65;67.01;99110.86;1671627;84;21581;-71
2021/06/21 05:37:39;;;;;;;5.17;1.60;;;;;;;22.73;66.29;99112.42;1676540;84;20977;-69
2021/06/21 05:40:06;;;;;;;10.00;1.87;;;;;;;22.82;64.87;99116.81;1648363;85;20944;-71
2021/06/21 05:42:33;;;;;;;1.75;1.50;;;;;;;22.87;65.56;99111.58;1642680;87;21118;-70
2021/06/21 05:45:00;;;;;;;8.23;1.80;;;;;;;22.97;66.66;99112.72;1659506;85;21017;-70
2021/06/21 05:47:26;;;;;;;6.55;1.65;;;;;;;23.05;65.52;99110.88;1671429;84;21879;-69
2021/06/21 05:49:53;;;;;;;5.72;2.02;;;;;;;23.09;63.86;99117.05;1694335;84;20952;-69
2021/06/21 05:52:19;;;;;;;3.60;1.90;;;;;;;23.12;63.92;99110.59;1671637;84;20927;-69
2021/06/21 05:54:47;;;;;;;51.70;26.33;;;;;;;23.17;65.49;99110.96;1654429;84;21015;-69
2021/06/21 05:57:14;;;;;;;126.60;62.48;;;;;;;23.26;64.04;99114.09;1680070;83;21534;-69
2021/06/21 05:59:40;;;;;;;60.25;27.15;;;;;;;23.31;63.26;99110.06;1659504;84;21523;-71
2021/06/21 06:02:07;;;;;;;22.67;8.70;;;;;;;23.31;62.78;99106.66;1674263;84;21010;-70
2021/06/21 06:04:35;;;;;;;9.35;2.25;;;;;;;23.33;63.08;99102.84;1680448;84;21006;-70
2021/06/21 06:07:02;;;;;;;10.00;4.45;;;;;;;23.36;63.52;99104.02;1667672;84;21021;-69
2021/06/21 06:09:28;;;;;;;6.90;3.62;;;;;;;23.45;63.88;99102.16;1658910;84;21123;-72
2021/06/21 06:11:57;;;;;;;5.28;2.20;;;;;;;23.55;64.04;99099.30;1670112;84;20902;-76
2021/06/21 06:14:23;;;;;;;3.70;2.02;;;;;;;23.66;64.03;99092.99;1673116;84;20914;-72
2021/06/21 06:16:50;;;;;;;4.42;1.35;;;;;;;23.76;64.09;99093.28;1657536;84;20981;-70
2021/06/21 06:19:16;;;;;;;2.77;1.70;;;;;;;23.83;62.75;99091.20;1680024;84;21007;-72
2021/06/21 06:21:43;;;;;;;3.35;1.60;;;;;;;23.90;63.72;99079.13;1671778;84;20879;-74
2021/06/21 06:24:09;;;;;;;2.83;1.57;;;;;;;23.97;61.60;99080.45;1668432;84;21190;-72
2021/06/21 06:26:36;;;;;;;6.50;2.12;;;;;;;23.94;61.77;99072.88;1692916;84;21071;-70
2021/06/21 06:29:03;;;;;;;6.10;2.12;;;;;;;23.96;63.03;99067.64;1685461;84;21029;-71
2021/06/21 06:31:29;;;;;;;7.55;2.10;;;;;;;24.02;63.16;99067.38;1658764;84;21245;-70
2021/06/21 06:33:57;;;;;;;3.33;1.50;;;;;;;24.10;62.61;99061.08;1645975;85;21154;-72
2021/06/21 06:36:24;;;;;;;5.62;1.85;;;;;;;24.14;62.17;99057.02;1639208;85;21197;-69
2021/06/21 06:38:51;;;;;;;7.42;1.67;;;;;;;24.19;63.59;99056.56;1652962;85;21121;-69
2021/06/21 06:41:18;;;;;;;5.08;2.10;;;;;;;24.31;63.17;99058.02;1645975;85;21105;-69
2021/06/21 06:43:44;;;;;;;9.18;2.30;;;;;;;24.42;62.88;99057.89;1682010;84;21051;-69
2021/06/21 06:46:11;;;;;;;3.15;1.50;;;;;;;24.51;63.22;99062.38;1666375;84;21481;-70
2021/06/21 06:48:37;;;;;;;5.53;1.65;;;;;;;24.64;63.29;99062.01;1647752;84;21099;-70
2021/06/21 06:51:04;;;;;;;3.20;1.70;;;;;;;24.74;61.65;99058.86;1667402;84;20891;-71
2021/06/21 06:53:39;;;;;;;5.65;1.75;;;;;;;24.78;61.52;99059.00;1653780;84;20995;-70
2021/06/21 06:58:43;;;;;;;14.40;1.90;;;;;;;24.88;61.94;99065.04;1669813;84;21085;-71
2021/06/21 07:01:09;;;;;;;5.92;1.82;;;;;;;25.03;60.91;99057.84;1657539;84;21139;-70
2021/06/21 07:03:36;;;;;;;4.55;2.10;;;;;;;25.15;61.39;99062.25;1672712;84;20959;-70
2021/06/21 07:06:03;;;;;;;2.90;1.57;;;;;;;25.26;60.18;99054.45;1674464;84;20954;-69
2021/06/21 07:08:32;;;;;;;4.85;1.85;;;;;;;25.40;59.74;99051.22;1672229;84;21624;-69
2021/06/21 07:10:59;;;;;;;2.00;1.52;;;;;;;25.48;60.46;99055.47;1645667;85;21078;-69
2021/06/21 07:13:27;;;;;;;5.58;1.85;;;;;;;25.52;58.84;99049.97;1685211;84;20893;-69
2021/06/21 07:15:53;;;;;;;5.72;2.00;;;;;;;25.56;59.31;99052.11;1678836;84;20909;-69
2021/06/21 07:18:20;;;;;;;9.28;2.22;;;;;;;25.60;59.25;99050.64;1678943;84;21101;-71
2021/06/21 07:20:46;;;;;;;8.25;1.98;;;;;;;25.60;59.06;99045.81;1680019;84;21445;-70
2021/06/21 07:23:13;;;;;;;2.47;1.60;;;;;;;25.67;59.01;99040.70;1652356;84;20956;-71
2021/06/21 07:25:39;;;;;;;5.35;1.70;;;;;;;25.71;58.93;99043.45;1678060;84;21565;-70
2021/06/21 07:28:06;;;;;;;3.60;1.77;;;;;;;25.76;57.98;99038.73;1671808;84;20993;-70
2021/06/21 07:30:33;;;;;;;5.30;2.30;;;;;;;25.84;58.80;99035.97;1665914;84;21223;-71
2021/06/21 07:32:59;;;;;;;5.65;1.72;;;;;;;25.97;59.02;99034.91;1698188;84;21076;-70
2021/06/21 07:35:25;;;;;;;5.20;1.65;;;;;;;26.14;58.80;99037.16;1655619;84;21012;-70
2021/06/21 07:37:52;;;;;;;6.15;2.00;;;;;;;26.29;56.64;99032.03;1660911;84;21466;-75
2021/06/21 07:40:18;;;;;;;5.80;1.82;;;;;;;26.34;56.80;99031.55;1676558;84;20950;-69
2021/06/21 07:42:45;;;;;;;7.45;2.12;;;;;;;26.39;57.61;99026.82;1662202;84;21465;-70
2021/06/21 07:45:12;;;;;;;8.28;1.98;;;;;;;26.50;57.40;99025.19;1680315;84;20913;-72
2021/06/21 07:47:39;;;;;;;4.50;1.70;;;;;;;26.57;56.60;99020.16;1697742;84;20936;-71
2021/06/21 07:50:06;;;;;;;11.03;1.85;;;;;;;26.67;56.61;99029.59;1693621;84;21970;-72
2021/06/21 07:52:33;;;;;;;10.30;1.82;;;;;;;26.78;56.51;99027.94;1690585;84;20985;-70
2021/06/21 07:55:00;;;;;;;4.83;1.95;;;;;;;26.90;56.25;99025.84;1675919;84;21002;-72
2021/06/21 07:57:29;;;;;;;7.75;1.92;;;;;;;27.03;55.98;99021.75;1664828;84;21580;-71
2021/06/21 07:59:56;;;;;;;9.53;1.40;;;;;;;27.12;54.39;99022.73;1669140;84;21124;-71
2021/06/21 08:02:22;;;;;;;5.97;1.80;;;;;;;27.15;54.82;99019.65;1646594;84;21158;-74
2021/06/21 08:04:50;;;;;;;4.03;1.82;;;;;;;27.24;54.14;99024.02;1677815;84;21579;-71
2021/06/21 08:07:17;;;;;;;3.60;1.72;;;;;;;27.34;53.33;99020.75;1678945;84;21067;-72
2021/06/21 08:09:44;;;;;;;4.08;1.90;;;;;;;27.45;54.22;99030.52;1686865;84;21580;-69
2021/06/21 08:12:10;;;;;;;6.83;1.60;;;;;;;27.56;54.17;99034.48;1654509;85;21244;-71
2021/06/21 08:14:41;;;;;;;11.22;2.10;;;;;;;27.68;54.18;99032.98;1644256;86;21197;-72
2021/06/21 08:17:07;;;;;;;8.30;1.80;;;;;;;27.80;52.51;99030.81;1638525;86;21534;-70
2021/06/21 08:19:34;;;;;;;2.85;1.60;;;;;;;27.88;53.29;99041.46;1638103;85;21067;-70
2021/06/21 08:22:02;;;;;;;3.98;2.02;;;;;;;28.00;53.52;99036.31;1631931;86;21083;-70
2021/06/21 08:24:29;;;;;;;6.80;1.80;;;;;;;28.22;53.96;99029.65;1634145;86;21038;-70
2021/06/21 08:27:00;;;;;;;5.50;1.95;;;;;;;28.48;49.97;99031.88;1647038;86;21109;-72
2021/06/21 08:29:26;;;;;;;5.10;1.62;;;;;;;28.66;50.73;99031.97;1652943;86;21110;-70
2021/06/21 08:31:53;;;;;;;4.80;1.37;;;;;;;28.92;51.03;99034.97;1643757;86;21563;-70
2021/06/21 08:34:19;;;;;;;8.85;1.90;;;;;;;29.16;50.17;99028.34;1641126;85;21189;-70
2021/06/21 08:36:47;;;;;;;3.55;1.52;;;;;;;29.39;48.50;99029.38;1640060;86;21034;-70
2021/06/21 08:39:14;;;;;;;7.47;2.08;;;;;;;29.70;48.72;99019.63;1657040;85;21582;-72
2021/06/21 08:41:41;;;;;;;5.10;1.65;;;;;;;29.94;45.58;99028.48;1619635;86;21117;-70
2021/06/21 08:44:08;;;;;;;7.10;1.70;;;;;;;29.97;46.93;99032.42;1616886;86;21568;-69
2021/06/21 08:46:34;;;;;;;8.45;2.00;;;;;;;30.03;45.71;99037.07;1603092;87;21149;-70
2021/06/21 08:49:02;;;;;;;5.53;1.80;;;;;;;30.11;44.08;99033.33;1610479;87;21098;-70
2021/06/21 08:51:28;;;;;;;4.25;1.60;;;;;;;30.12;44.74;99033.49;1605226;87;21126;-70
2021/06/21 08:53:54;;;;;;;5.65;1.70;;;;;;;30.23;45.39;99033.89;1607817;87;20968;-72
2021/06/21 08:56:21;;;;;;;9.13;2.10;;;;;;;30.42;45.71;99031.34;1619509;86;21114;-72
2021/06/21 08:58:48;;;;;;;7.92;1.60;;;;;;;30.62;44.65;99031.64;1629017;86;21022;-70
2021/06/21 09:01:14;;;;;;;8.33;2.30;;;;;;;30.70;42.80;99031.49;1610964;88;21001;-68
2021/06/21 09:03:40;;;;;;;5.42;1.95;;;;;;;30.72;43.51;99022.69;1610010;87;21124;-70
2021/06/21 09:06:22;;;;;;;4.70;1.55;;;;;;;30.81;43.18;99031.23;1599233;87;21105;-71
2021/06/21 09:08:58;;;;;;;6.65;1.67;;;;;;;30.66;45.81;99028.80;1666760;84;21047;-70
2021/06/21 09:11:51;;;;;;;1.98;1.52;;;;;;;30.80;45.67;99038.78;1662393;84;21033;-69
2021/06/21 09:14:30;;;;;;;8.68;1.70;;;;;;;30.94;44.92;99034.59;1660674;84;21128;-70
2021/06/21 09:17:09;;;;;;;9.05;2.00;;;;;;;30.77;45.09;99028.38;1669443;84;21731;-69
2021/06/21 09:20:00;;;;;;;5.00;2.75;;;;;;;30.69;45.25;99025.03;1664130;84;20980;-70
2021/06/21 09:22:41;;;;;;;9.77;4.23;;;;;;;30.65;45.10;99025.80;1660798;84;21052;-69
2021/06/21 09:25:09;;;;;;;7.62;2.08;;;;;;;30.55;45.32;99032.05;1679085;84;21032;-70
2021/06/21 09:27:39;;;;;;;5.80;2.27;;;;;;;30.35;45.16;99032.23;1655275;84;21535;-69
2021/06/21 09:30:10;;;;;;;5.85;2.65;;;;;;;30.23;46.25;99032.47;1657738;84;21151;-69
2021/06/21 09:32:46;;;;;;;13.98;2.12;;;;;;;30.29;46.81;99031.25;1638456;85;21456;-69
2021/06/21 09:35:34;;;;;;;5.33;1.95;;;;;;;30.46;46.09;99035.45;1652048;85;21085;-69
2021/06/21 09:38:14;;;;;;;4.85;1.47;;;;;;;30.58;45.91;99038.86;1658737;84;21070;-70
2021/06/21 09:40:52;;;;;;;5.45;2.42;;;;;;;30.77;45.13;99043.33;1661819;84;21084;-70
2021/06/21 09:43:36;;;;;;;8.90;1.70;;;;;;;30.84;45.00;99044.47;1656151;84;21821;-69
2021/06/21 09:46:18;;;;;;;5.22;3.40;;;;;;;31.05;43.64;99040.62;1653095;84;21040;-71
2021/06/21 09:48:53;;;;;;;6.08;2.75;;;;;;;31.04;43.12;99039.04;1654067;85;20991;-72
2021/06/21 09:51:33;;;;;;;6.10;1.87;;;;;;;30.96;44.66;99051.92;1652476;86;21075;-70
2021/06/21 09:54:08;;;;;;;4.55;2.12;;;;;;;31.08;44.54;99051.81;1653233;86;20920;-70
2021/06/21 09:56:51;;;;;;;7.40;1.85;;;;;;;31.17;44.20;99053.92;1640207;86;21563;-70
2021/06/21 09:59:31;;;;;;;3.75;1.47;;;;;;;31.23;42.99;99055.48;1657255;85;21015;-70
2021/06/21 10:02:09;;;;;;;4.33;1.40;;;;;;;31.24;44.09;99053.60;1634468;86;21087;-70
2021/06/21 10:04:37;;;;;;;8.30;1.85;;;;;;;31.37;41.51;99062.78;1629761;86;20971;-70
2021/06/21 10:07:04;;;;;;;6.62;1.92;;;;;;;31.30;42.30;99059.45;1629839;86;20876;-69
2021/06/21 10:09:31;;;;;;;5.40;1.67;;;;;;;31.27;43.11;99049.83;1640434;86;21136;-70
2021/06/21 10:11:58;;;;;;;4.58;1.72;;;;;;;31.37;43.47;99050.64;1660395;84;21020;-70
2021/06/21 10:14:27;;;;;;;5.08;2.00;;;;;;;31.53;40.97;99059.66;1662856;84;21029;-70
2021/06/21 10:16:54;;;;;;;3.87;1.47;;;;;;;31.63;41.59;99054.01;1666265;84;21187;-70
2021/06/21 10:19:21;;;;;;;8.98;2.05;;;;;;;31.67;41.10;99056.06;1634820;86;21158;-70
2021/06/21 10:21:53;;;;;;;4.50;1.60;;;;;;;31.59;42.06;99053.38;1597447;88;21122;-71
2021/06/21 10:24:19;;;;;;;6.75;1.82;;;;;;;31.60;39.73;99057.78;1630645;86;21047;-68
2021/06/21 10:26:50;;;;;;;3.85;1.70;;;;;;;31.58;41.64;99057.47;1627564;87;20903;-67
2021/06/21 10:29:15;;;;;;;3.12;1.77;;;;;;;31.62;42.69;99058.11;1679231;84;20905;-69
2021/06/21 10:31:42;;;;;;;5.20;1.80;;;;;;;31.80;42.80;99056.70;1691342;84;20910;-68
2021/06/21 10:34:08;;;;;;;4.97;2.00;;;;;;;31.97;43.40;99060.81;1675615;84;21097;-67
2021/06/21 10:36:53;;;;;;;5.47;1.90;;;;;;;31.99;39.12;99068.23;1621260;86;21122;-67
2021/06/21 10:39:24;;;;;;;9.25;1.65;;;;;;;31.77;38.56;99070.45;1650974;86;20990;-67
2021/06/21 10:42:11;;;;;;;5.92;1.80;;;;;;;31.57;40.41;99074.33;1659904;84;20973;-66
2021/06/21 10:44:41;;;;;;;3.22;1.75;;;;;;;31.72;43.07;99070.45;1664695;84;21083;-66
2021/06/21 10:47:38;;;;;;;10.90;2.17;;;;;;;31.75;41.07;99073.76;1662130;84;21131;-66
2021/06/21 10:50:21;;;;;;;8.45;2.20;;;;;;;31.78;42.70;99067.11;1621947;87;20972;-65
2021/06/21 10:52:55;;;;;;;4.55;1.75;;;;;;;31.97;41.89;99065.08;1651046;86;20954;-66
2021/06/21 10:55:33;;;;;;;3.22;1.60;;;;;;;32.07;40.46;99075.17;1620809;87;20970;-66
2021/06/21 10:58:25;;;;;;;7.03;2.00;;;;;;;32.03;40.57;99075.95;1621009;87;21010;-65
2021/06/21 11:00:54;;;;;;;5.00;1.95;;;;;;;32.09;40.19;99084.00;1668516;84;21234;-67
2021/06/21 11:03:30;;;;;;;5.53;1.90;;;;;;;31.80;40.70;99077.36;1663817;84;21556;-66
2021/06/21 11:06:03;;;;;;;2.52;1.47;;;;;;;31.37;41.49;99076.16;1632229;85;21536;-65
2021/06/21 11:08:50;;;;;;;4.85;1.95;;;;;;;30.87;43.30;99080.38;1667753;84;21195;-66
2021/06/21 11:11:42;;;;;;;5.37;1.95;;;;;;;30.45;42.94;99080.59;1656568;84;20982;-66
2021/06/21 11:14:17;;;;;;;4.67;2.00;;;;;;;30.38;44.58;99085.90;1652391;84;21139;-67
2021/06/21 11:16:46;;;;;;;9.28;3.62;;;;;;;30.86;45.43;99082.26;1653377;84;21084;-67
2021/06/21 11:19:21;;;;;;;5.95;3.00;;;;;;;31.39;43.49;99075.86;1651433;84;21019;-67
2021/06/21 11:21:53;;;;;;;9.98;7.35;;;;;;;31.69;44.03;99081.95;1665943;84;21074;-67
2021/06/21 11:24:43;;;;;;;19.92;13.00;;;;;;;31.63;42.66;99083.16;1604602;87;21074;-67
2021/06/21 11:27:12;;;;;;;43.02;27.48;;;;;;;31.59;43.16;99081.11;1645858;84;21825;-68
2021/06/21 11:29:44;;;;;;;19.30;10.75;;;;;;;31.57;44.56;99074.33;1651874;84;21077;-68
2021/06/21 11:32:12;;;;;;;8.03;2.37;;;;;;;31.63;42.80;99071.81;1599122;88;21005;-66
2021/06/21 11:35:00;;;;;;;6.25;1.92;;;;;;;31.66;42.64;99072.30;1612302;87;21554;-66
2021/06/21 11:37:46;;;;;;;7.05;1.92;;;;;;;31.79;42.14;99077.20;1607413;87;21581;-66
2021/06/21 11:40:19;;;;;;;8.58;2.08;;;;;;;31.94;42.64;99071.70;1614862;87;21130;-66
2021/06/21 11:43:06;;;;;;;8.15;1.80;;;;;;;31.99;42.11;99078.80;1609769;86;21035;-66
2021/06/21 11:45:59;;;;;;;6.22;1.98;;;;;;;31.98;42.21;99075.80;1609369;87;21099;-68
2021/06/21 11:48:33;;;;;;;2.85;1.62;;;;;;;32.13;42.26;99079.59;1608346;88;21557;-67